createdAt,value
2018-07-22T00:00:23.648Z,98.90
2018-07-22T00:03:04.359Z,98.90
2018-07-22T00:05:45.984Z,99.10
2018-07-22T00:08:33.853Z,99.60
2018-07-22T00:11:15.594Z,99.50
2018-07-22T00:13:58.085Z,99.30
2018-07-22T00:16:39.360Z,99.40
2018-07-22T00:22:02.501Z,99.70
2018-07-22T00:24:44.073Z,99.90
2018-07-22T00:27:24.743Z,99.90
2018-07-22T00:30:07.811Z,99.90
2018-07-22T00:32:49.089Z,99.90
2018-07-22T00:35:29.857Z,99.90
2018-07-22T00:38:11.376Z,99.90
2018-07-22T00:40:52.068Z,99.90
2018-07-22T00:43:32.783Z,99.90
2018-07-22T00:46:14.395Z,99.90
2018-07-22T00:48:55.012Z,99.90
2018-07-22T00:51:35.691Z,99.90
2018-07-22T00:54:17.083Z,99.90
2018-07-22T00:56:58.588Z,99.90
2018-07-22T00:59:40.056Z,99.90
2018-07-22T01:02:20.737Z,99.90
2018-07-22T01:05:21.609Z,99.90
2018-07-22T01:08:03.257Z,99.90
2018-07-22T01:13:57.956Z,99.90
2018-07-22T01:16:39.385Z,99.90
2018-07-22T01:19:20.118Z,99.90
2018-07-22T01:22:01.111Z,99.90
2018-07-22T01:24:42.498Z,99.80
2018-07-22T01:27:24.095Z,99.80
2018-07-22T01:30:04.708Z,99.80
2018-07-22T01:39:11.822Z,99.90
2018-07-22T01:41:53.267Z,99.90
2018-07-22T01:44:34.223Z,99.90
2018-07-22T01:50:23.607Z,99.90
2018-07-22T01:53:05.278Z,99.90
2018-07-22T01:56:04.052Z,99.90
2018-07-22T01:58:45.672Z,99.90
2018-07-22T02:01:26.507Z,99.90
2018-07-22T02:04:07.248Z,99.90
2018-07-22T02:06:48.056Z,99.90
2018-07-22T02:09:29.670Z,99.90
2018-07-22T02:12:11.133Z,99.90
2018-07-22T02:15:12.858Z,99.90
2018-07-22T02:17:54.369Z,99.90
2018-07-22T02:20:36.019Z,99.90
2018-07-22T02:23:16.953Z,99.90
2018-07-22T02:25:58.444Z,99.90
2018-07-22T02:28:40.178Z,99.90
2018-07-22T02:31:20.811Z,99.90
2018-07-22T02:37:09.194Z,99.90
2018-07-22T02:39:50.103Z,99.90
2018-07-22T02:42:31.745Z,99.90
2018-07-22T02:45:14.480Z,99.90
2018-07-22T02:47:56.011Z,99.90
2018-07-22T02:50:37.642Z,99.90
2018-07-22T02:53:19.716Z,99.90
2018-07-22T02:56:00.802Z,99.90
2018-07-22T02:58:41.501Z,99.90
2018-07-22T03:01:23.217Z,99.90
2018-07-22T03:04:03.928Z,99.90
2018-07-22T03:06:45.411Z,99.90
2018-07-22T03:09:27.437Z,99.90
2018-07-22T03:12:08.862Z,99.90
2018-07-22T03:14:50.044Z,99.90
2018-07-22T03:17:30.766Z,99.90
2018-07-22T03:20:11.498Z,99.90
2018-07-22T03:22:53.073Z,99.90
2018-07-22T03:25:34.704Z,99.90
2018-07-22T03:28:15.622Z,99.90
2018-07-22T03:30:57.256Z,99.90
2018-07-22T03:33:38.627Z,99.90
2018-07-22T03:36:20.320Z,99.90
2018-07-22T03:39:01.305Z,99.90
2018-07-22T03:41:42.103Z,99.90
2018-07-22T03:44:23.925Z,99.00
2018-07-22T03:47:05.426Z,97.30
2018-07-22T03:49:47.112Z,97.50
2018-07-22T03:52:27.980Z,97.40
2018-07-22T03:55:09.572Z,95.80
2018-07-22T03:57:51.799Z,94.60
2018-07-22T04:00:41.064Z,94.90
2018-07-22T04:03:23.826Z,94.10
2018-07-22T04:06:05.248Z,93.90
2018-07-22T04:09:03.931Z,93.90
2018-07-22T04:11:45.573Z,93.60
2018-07-22T04:14:27.165Z,93.40
2018-07-22T04:17:08.903Z,93.60
2018-07-22T04:19:50.145Z,93.70
2018-07-22T04:22:30.860Z,93.70
2018-07-22T04:25:11.584Z,93.70
2018-07-22T04:27:53.316Z,93.80
2018-07-22T04:30:34.881Z,93.80
2018-07-22T04:33:15.672Z,93.90
2018-07-22T04:35:56.546Z,93.90
2018-07-22T04:38:38.157Z,93.90
2018-07-22T04:41:19.388Z,93.70
2018-07-22T04:44:00.413Z,93.70
2018-07-22T04:46:42.119Z,93.50
2018-07-22T04:49:23.697Z,93.60
2018-07-22T04:52:04.467Z,93.80
2018-07-22T04:54:45.141Z,94.10
2018-07-22T04:57:28.011Z,94.30
2018-07-22T05:00:09.184Z,94.60
2018-07-22T05:02:51.247Z,94.80
2018-07-22T05:05:32.430Z,94.90
2018-07-22T05:08:14.145Z,94.90
2018-07-22T05:10:55.770Z,94.70
2018-07-22T05:13:37.484Z,94.80
2018-07-22T05:16:19.772Z,95.00
2018-07-22T05:19:00.749Z,95.00
2018-07-22T05:21:41.563Z,95.00
2018-07-22T05:24:23.302Z,95.00
2018-07-22T05:27:04.013Z,94.90
2018-07-22T05:29:45.620Z,95.50
2018-07-22T05:32:27.194Z,95.10
2018-07-22T05:35:08.367Z,95.10
2018-07-22T05:37:49.803Z,95.10
2018-07-22T05:40:31.544Z,95.10
2018-07-22T05:43:13.597Z,95.10
2018-07-22T05:45:54.742Z,95.20
2018-07-22T05:48:35.827Z,95.10
2018-07-22T05:51:17.237Z,95.20
2018-07-22T05:53:58.118Z,95.20
2018-07-22T05:56:38.812Z,95.00
2018-07-22T05:59:20.470Z,94.90
2018-07-22T06:02:02.110Z,94.80
2018-07-22T06:04:43.541Z,95.00
2018-07-22T06:07:24.365Z,95.20
2018-07-22T06:10:05.816Z,95.40
2018-07-22T06:12:47.443Z,95.60
2018-07-22T06:15:28.961Z,94.80
2018-07-22T06:18:10.486Z,94.80
2018-07-22T06:20:51.061Z,96.40
2018-07-22T06:23:33.349Z,97.00
2018-07-22T06:26:14.453Z,97.10
2018-07-22T06:28:55.867Z,97.20
2018-07-22T06:31:37.447Z,97.10
2018-07-22T06:34:18.144Z,96.90
2018-07-22T06:36:59.790Z,97.10
2018-07-22T06:39:41.151Z,97.30
2018-07-22T06:42:21.809Z,97.50
2018-07-22T06:45:03.628Z,97.60
2018-07-22T06:47:44.456Z,97.60
2018-07-22T06:50:26.721Z,97.50
2018-07-22T06:53:08.379Z,97.20
2018-07-22T06:55:49.500Z,96.20
2018-07-22T06:58:31.145Z,95.90
2018-07-22T07:01:11.979Z,96.50
2018-07-22T07:03:55.585Z,97.00
2018-07-22T07:06:36.548Z,97.10
2018-07-22T07:09:19.066Z,97.60
2018-07-22T07:11:59.922Z,97.30
2018-07-22T07:14:40.619Z,97.30
2018-07-22T07:17:21.456Z,97.20
2018-07-22T07:20:02.920Z,97.00
2018-07-22T07:22:44.400Z,96.70
2018-07-22T07:25:26.178Z,96.50
2018-07-22T07:28:07.832Z,96.20
2018-07-22T07:30:49.435Z,96.10
2018-07-22T07:33:31.337Z,96.50
2018-07-22T07:36:13.421Z,96.80
2018-07-22T07:38:54.887Z,97.10
2018-07-22T07:41:36.967Z,97.10
2018-07-22T07:47:00.193Z,97.10
2018-07-22T07:49:41.941Z,96.10
2018-07-22T07:52:23.703Z,95.70
2018-07-22T07:55:05.284Z,96.10
2018-07-22T07:57:47.052Z,96.30
2018-07-22T08:00:28.595Z,96.00
2018-07-22T08:03:09.869Z,96.00
2018-07-22T08:05:52.700Z,96.30
2018-07-22T08:08:34.252Z,96.60
2018-07-22T08:11:15.845Z,96.70
2018-07-22T08:13:58.116Z,97.10
2018-07-22T08:16:39.521Z,97.10
2018-07-22T08:19:26.954Z,96.80
2018-07-22T08:22:08.469Z,96.70
2018-07-22T08:24:50.104Z,95.70
2018-07-22T08:27:30.800Z,94.10
2018-07-22T08:30:12.359Z,92.90
2018-07-22T08:32:52.994Z,92.90
2018-07-22T08:35:34.105Z,93.40
2018-07-22T08:38:15.691Z,93.90
2018-07-22T08:40:57.323Z,94.00
2018-07-22T08:43:39.375Z,93.70
2018-07-22T08:46:20.765Z,92.80
2018-07-22T08:49:02.664Z,93.60
2018-07-22T08:51:44.783Z,94.50
2018-07-22T08:54:27.174Z,95.10
2018-07-22T08:57:11.127Z,95.80
2018-07-22T08:59:52.740Z,96.40
2018-07-22T09:02:37.950Z,96.70
2018-07-22T09:05:21.330Z,96.80
2018-07-22T09:08:02.449Z,96.80
2018-07-22T09:10:44.137Z,96.20
2018-07-22T09:13:25.623Z,96.20
2018-07-22T09:16:07.441Z,96.20
2018-07-22T09:18:48.722Z,96.00
2018-07-22T09:21:30.425Z,95.80
2018-07-22T09:24:11.900Z,95.30
2018-07-22T09:26:53.434Z,95.60
2018-07-22T09:29:35.093Z,95.70
2018-07-22T09:32:21.498Z,95.70
2018-07-22T09:35:02.529Z,95.80
2018-07-22T09:37:44.277Z,95.50
2018-07-22T09:40:25.859Z,95.40
2018-07-22T09:43:09.106Z,95.00
2018-07-22T09:45:50.238Z,95.10
2018-07-22T09:48:31.847Z,95.30
2018-07-22T09:51:13.386Z,94.10
2018-07-22T09:53:54.485Z,93.30
2018-07-22T09:59:17.540Z,93.70
2018-07-22T10:01:59.142Z,93.90
2018-07-22T10:04:40.739Z,94.00
2018-07-22T10:07:22.515Z,94.70
2018-07-22T10:10:09.616Z,95.40
2018-07-22T10:12:51.769Z,95.70
2018-07-22T10:15:33.523Z,96.50
2018-07-22T10:18:15.054Z,95.80
2018-07-22T10:21:01.658Z,95.20
2018-07-22T10:23:42.398Z,95.20
2018-07-22T10:26:23.428Z,95.20
2018-07-22T10:29:05.292Z,95.50
2018-07-22T10:31:46.644Z,95.20
2018-07-22T10:34:28.141Z,94.40
2018-07-22T10:37:09.937Z,93.40
2018-07-22T10:39:51.539Z,93.00
2018-07-22T10:42:32.933Z,91.70
2018-07-22T10:45:13.960Z,91.40
2018-07-22T10:47:55.347Z,90.70
2018-07-22T10:50:36.819Z,90.60
2018-07-22T10:53:18.456Z,90.10
2018-07-22T10:55:59.996Z,88.50
2018-07-22T10:58:42.143Z,85.50
2018-07-22T11:01:23.240Z,87.80
2018-07-22T11:04:04.733Z,87.20
2018-07-22T11:06:46.353Z,86.60
2018-07-22T11:09:28.365Z,86.70
2018-07-22T11:12:10.256Z,88.00
2018-07-22T11:14:52.076Z,87.10
2018-07-22T11:17:33.932Z,88.30
2018-07-22T11:20:17.664Z,87.40
2018-07-22T11:23:00.097Z,87.40
2018-07-22T11:25:41.739Z,87.60
2018-07-22T11:28:23.796Z,87.80
2018-07-22T11:31:06.733Z,88.00
2018-07-22T11:33:48.069Z,87.80
2018-07-22T11:36:30.273Z,88.30
2018-07-22T11:39:13.229Z,86.40
2018-07-22T11:41:54.290Z,88.00
2018-07-22T11:44:35.830Z,86.70
2018-07-22T11:47:17.561Z,87.00
2018-07-22T11:50:00.204Z,85.50
2018-07-22T11:52:41.845Z,86.50
2018-07-22T11:55:24.907Z,87.20
2018-07-22T11:58:05.897Z,87.00
2018-07-22T12:00:48.865Z,86.70
2018-07-22T12:03:30.037Z,86.50
2018-07-22T12:06:10.783Z,85.60
2018-07-22T12:08:52.424Z,85.70
2018-07-22T12:11:34.076Z,85.50
2018-07-22T12:14:15.587Z,84.40
2018-07-22T12:16:57.321Z,83.40
2018-07-22T12:19:39.041Z,83.50
2018-07-22T12:22:19.767Z,86.60
2018-07-22T12:25:01.384Z,88.10
2018-07-22T12:27:42.992Z,88.70
2018-07-22T12:30:25.202Z,88.70
2018-07-22T12:33:06.235Z,90.00
2018-07-22T12:35:47.884Z,89.90
2018-07-22T12:38:29.606Z,90.20
2018-07-22T12:41:10.425Z,90.40
2018-07-22T12:43:52.516Z,90.90
2018-07-22T12:46:33.650Z,90.60
2018-07-22T12:49:15.263Z,90.10
2018-07-22T12:51:56.853Z,90.00
2018-07-22T12:54:37.491Z,90.40
2018-07-22T12:57:19.240Z,87.70
2018-07-22T13:00:00.888Z,88.80
2018-07-22T13:02:41.597Z,88.90
2018-07-22T13:05:23.118Z,87.90
2018-07-22T13:08:03.808Z,88.00
2018-07-22T13:10:45.416Z,85.90
2018-07-22T13:13:26.956Z,85.90
2018-07-22T13:16:08.197Z,87.10
2018-07-22T13:18:49.401Z,85.70
2018-07-22T13:21:30.802Z,85.30
2018-07-22T13:24:11.667Z,85.70
2018-07-22T14:04:24.316Z,85.40
2018-07-22T14:07:06.054Z,86.40
2018-07-22T14:09:47.684Z,85.60
2018-07-22T14:12:28.429Z,85.90
2018-07-22T14:15:10.339Z,85.70
2018-07-22T14:17:51.683Z,85.00
2018-07-22T14:20:32.418Z,84.40
2018-07-22T14:23:14.140Z,84.50
2018-07-22T14:25:55.942Z,85.00
2018-07-22T14:28:36.812Z,84.40
2018-07-22T14:31:18.558Z,85.60
2018-07-22T14:33:59.886Z,86.00
2018-07-22T14:36:41.808Z,85.50
2018-07-22T14:39:23.564Z,84.80
2018-07-22T14:42:06.057Z,84.60
2018-07-22T14:44:47.685Z,84.60
2018-07-22T14:47:29.158Z,85.20
2018-07-22T14:50:09.954Z,85.30
2018-07-22T14:55:33.349Z,84.50
2018-07-22T14:58:14.928Z,84.00
2018-07-22T15:00:56.706Z,83.60
2018-07-22T15:03:40.564Z,83.80
2018-07-22T15:06:21.605Z,83.50
2018-07-22T15:09:02.926Z,84.00
2018-07-22T15:11:43.864Z,84.40
2018-07-22T15:14:24.765Z,84.70
2018-07-22T15:17:06.318Z,86.60
2018-07-22T15:19:57.416Z,85.90
2018-07-22T15:22:39.687Z,84.70
2018-07-22T15:25:21.236Z,84.00
2018-07-22T15:28:02.758Z,84.80
2018-07-22T15:30:44.418Z,83.50
2018-07-22T15:33:28.836Z,85.30
2018-07-22T15:36:10.123Z,83.50
2018-07-22T15:38:54.848Z,83.40
2018-07-22T15:41:36.730Z,83.90
2018-07-22T15:44:17.755Z,84.30
2018-07-22T15:46:58.552Z,84.20
2018-07-22T15:49:40.173Z,85.00
2018-07-22T15:52:20.982Z,84.00
2018-07-22T15:55:02.582Z,85.20
2018-07-22T15:57:44.162Z,86.00
2018-07-22T16:00:25.698Z,86.70
2018-07-22T16:03:07.578Z,86.70
2018-07-22T16:05:48.954Z,85.50
2018-07-22T16:08:30.680Z,84.80
2018-07-22T16:11:12.188Z,85.20
2018-07-22T16:13:53.671Z,86.30
2018-07-22T16:16:35.515Z,86.80
2018-07-22T16:19:17.858Z,87.30
2018-07-22T16:21:58.719Z,86.70
2018-07-22T16:24:40.605Z,87.20
2018-07-22T16:27:26.123Z,87.50
2018-07-22T16:30:07.709Z,86.70
2018-07-22T16:32:49.154Z,87.10
2018-07-22T16:35:31.023Z,88.00
2018-07-22T16:38:12.332Z,87.60
2018-07-22T16:40:53.756Z,88.00
2018-07-22T16:43:35.252Z,88.60
2018-07-22T16:46:17.065Z,89.00
2018-07-22T16:48:58.625Z,89.20
2018-07-22T16:51:40.215Z,89.70
2018-07-22T16:54:21.733Z,89.00
2018-07-22T16:57:04.032Z,88.30
2018-07-22T16:59:46.214Z,87.30
2018-07-22T17:02:28.138Z,87.50
2018-07-22T17:05:09.377Z,88.50
2018-07-22T17:07:51.362Z,89.50
2018-07-22T17:10:33.936Z,89.10
2018-07-22T17:13:15.355Z,90.10
2018-07-22T17:15:56.802Z,89.80
2018-07-22T17:18:38.528Z,89.40
2018-07-22T17:21:19.886Z,89.00
2018-07-22T17:24:00.965Z,89.20
2018-07-22T17:26:42.461Z,89.20
2018-07-22T17:29:24.080Z,89.40
2018-07-22T17:32:05.745Z,90.00
2018-07-22T17:34:46.527Z,90.30
2018-07-22T17:37:28.066Z,90.10
2018-07-22T17:40:09.565Z,90.20
2018-07-22T17:45:39.531Z,90.10
2018-07-22T17:48:24.875Z,90.50
2018-07-22T17:51:05.959Z,90.30
2018-07-22T17:54:07.505Z,90.10
2018-07-22T17:56:49.410Z,90.30
2018-07-22T17:59:30.308Z,90.30
2018-07-22T18:02:11.023Z,90.30
2018-07-22T18:04:52.627Z,90.10
2018-07-22T18:07:34.245Z,90.00
2018-07-22T18:10:15.821Z,90.10
2018-07-22T18:12:56.606Z,90.30
2018-07-22T18:15:38.401Z,90.30
2018-07-22T18:18:20.543Z,90.30
2018-07-22T18:21:01.824Z,90.10
2018-07-22T18:23:43.647Z,90.20
2018-07-22T18:26:25.224Z,90.30
2018-07-22T18:29:07.721Z,90.30
2018-07-22T18:31:49.518Z,88.80
2018-07-22T18:34:48.609Z,89.40
2018-07-22T18:37:40.514Z,88.60
2018-07-22T18:40:22.373Z,89.20
2018-07-22T18:43:03.722Z,89.60
2018-07-22T18:45:45.342Z,89.80
2018-07-22T18:48:27.911Z,90.00
2018-07-22T18:51:28.295Z,90.00
2018-07-22T18:54:09.205Z,90.40
2018-07-22T18:56:50.707Z,90.00
2018-07-22T18:59:33.067Z,90.20
2018-07-22T19:02:14.281Z,90.10
2018-07-22T19:04:55.828Z,90.10
2018-07-22T19:07:38.365Z,90.30
2018-07-22T19:10:20.348Z,90.30
2018-07-22T19:13:01.850Z,90.50
2018-07-22T19:15:42.895Z,90.80
2018-07-22T19:18:24.479Z,90.90
2018-07-22T19:21:05.146Z,91.10
2018-07-22T19:23:47.864Z,91.20
2018-07-22T19:26:29.725Z,91.30
2018-07-22T19:29:11.157Z,91.30
2018-07-22T19:31:52.656Z,91.30
2018-07-22T19:34:34.497Z,91.40
2018-07-22T19:37:15.841Z,91.50
2018-07-22T19:39:58.066Z,91.60
2018-07-22T19:42:39.269Z,91.70
2018-07-22T19:45:21.530Z,91.70
2018-07-22T19:48:02.596Z,91.80
2018-07-22T19:50:44.207Z,91.90
2018-07-22T19:53:25.145Z,91.90
2018-07-22T19:56:06.516Z,92.10
2018-07-22T19:58:47.212Z,92.20
2018-07-22T20:01:27.937Z,92.40
2018-07-22T20:04:10.410Z,92.30
2018-07-22T20:06:51.127Z,92.30
2018-07-22T20:09:32.789Z,92.20
2018-07-22T20:12:14.935Z,92.10
2018-07-22T20:14:56.179Z,92.10
2018-07-22T20:17:37.793Z,91.90
2018-07-22T20:20:18.532Z,92.00
2018-07-22T20:23:08.048Z,92.10
2018-07-22T20:25:48.819Z,92.30
2018-07-22T20:28:30.329Z,92.40
2018-07-22T20:33:53.435Z,92.40
2018-07-22T20:36:35.160Z,92.40
2018-07-22T20:39:37.635Z,92.50
2018-07-22T20:42:26.904Z,92.50
2018-07-22T20:45:08.568Z,92.40
2018-07-22T20:47:50.260Z,92.40
2018-07-22T20:50:31.934Z,92.60
2018-07-22T20:53:12.792Z,92.60
2018-07-22T20:55:54.306Z,92.60
2018-07-22T20:58:35.982Z,92.60
2018-07-22T21:01:18.723Z,92.70
2018-07-22T21:04:00.314Z,93.10
2018-07-22T21:06:43.990Z,92.80
2018-07-22T21:09:25.594Z,93.10
2018-07-22T21:12:06.703Z,92.80
2018-07-22T21:14:47.982Z,93.00
2018-07-22T21:17:28.761Z,92.80
2018-07-22T21:20:09.501Z,92.90
2018-07-22T21:22:50.217Z,92.90
2018-07-22T21:25:31.755Z,92.90
2018-07-22T21:28:12.597Z,93.00
2018-07-22T21:30:53.564Z,93.00
2018-07-22T21:33:35.420Z,93.10
2018-07-22T21:36:16.851Z,93.10
2018-07-22T21:41:46.879Z,93.30
2018-07-22T21:44:30.075Z,93.30
2018-07-22T21:47:32.437Z,93.30
2018-07-22T21:50:21.461Z,93.30
2018-07-22T21:55:55.566Z,93.50
2018-07-22T21:58:39.955Z,93.50
2018-07-22T22:01:23.023Z,93.60
2018-07-22T22:04:04.199Z,93.40
2018-07-22T22:06:53.247Z,93.70
2018-07-22T22:09:46.342Z,93.80
2018-07-22T22:12:31.445Z,93.80
2018-07-22T22:15:43.033Z,93.90
2018-07-22T22:21:09.438Z,93.90
2018-07-22T22:23:50.480Z,94.00
2018-07-22T22:26:32.047Z,94.10
2018-07-22T22:29:13.797Z,94.60
2018-07-22T22:31:55.138Z,94.20
2018-07-22T22:34:37.522Z,94.60
2018-07-22T22:37:19.316Z,94.30
2018-07-22T22:40:01.917Z,94.40
2018-07-22T22:43:06.075Z,94.50
2018-07-22T22:45:48.106Z,94.60
2018-07-22T22:48:29.367Z,94.60
2018-07-22T22:51:10.539Z,95.10
2018-07-22T22:53:52.131Z,95.00
2018-07-22T22:56:36.447Z,95.00
2018-07-22T22:59:21.954Z,95.00
2018-07-22T23:02:03.192Z,95.20
2018-07-22T23:04:44.661Z,95.20
2018-07-22T23:07:26.237Z,95.20
2018-07-22T23:10:07.788Z,95.20
2018-07-22T23:12:49.502Z,95.50
2018-07-22T23:15:31.011Z,95.20
2018-07-22T23:18:16.882Z,95.20
2018-07-22T23:21:01.440Z,95.60
2018-07-22T23:23:44.889Z,95.30
2018-07-22T23:26:26.443Z,95.30
2018-07-22T23:29:17.033Z,95.40
2018-07-22T23:31:57.990Z,95.50
2018-07-22T23:34:39.404Z,95.50
2018-07-22T23:37:20.004Z,95.60
2018-07-22T23:40:01.657Z,95.60
2018-07-22T23:42:43.175Z,95.60
2018-07-22T23:45:24.612Z,95.60
2018-07-22T23:48:06.276Z,95.70
2018-07-22T23:50:47.883Z,95.80
2018-07-22T23:53:29.551Z,95.80
2018-07-22T23:56:11.021Z,95.80
2018-07-22T23:58:52.581Z,95.80
